Time;durP1;ratioP1;P1;durP2;ratioP2;P2;SDS_P1;SDS_P2;PMS_P1;PMS_P2;Temp;Humidity;BMP_temperature;BMP_pressure;BME280_temperature;BME280_humidity;BME280_pressure;Samples;Min_cycle;Max_cycle;Signal;HPM_P1;HPM_P2
2023/05/04 00:01:53;;;;;;;9.23;5.85;;;;;;;8.81;100.00;102281.03;5073103;28;20020;-46
2023/05/04 00:04:19;;;;;;;15.75;6.13;;;;;;;8.74;100.00;102272.69;5060334;28;20029;-47
2023/05/04 00:06:44;;;;;;;7.10;5.70;;;;;;;8.73;100.00;102270.97;5053174;28;20428;-44
2023/05/04 00:09:12;;;;;;;12.15;5.57;;;;;;;8.70;100.00;102273.06;5053377;28;20056;-46
2023/05/04 00:11:37;;;;;;;6.82;5.80;;;;;;;8.65;100.00;102270.78;5053212;28;20725;-48
2023/05/04 00:14:03;;;;;;;12.10;6.80;;;;;;;8.67;100.00;102267.97;5052948;28;20545;-48
2023/05/04 00:16:28;;;;;;;9.45;5.78;;;;;;;8.63;100.00;102262.00;5057884;28;20022;-48
2023/05/04 00:18:54;;;;;;;9.35;5.88;;;;;;;8.60;100.00;102256.91;5073072;28;20107;-43
2023/05/04 00:21:19;;;;;;;15.35;7.10;;;;;;;8.56;100.00;102267.09;5070180;28;20319;-47
2023/05/04 00:23:44;;;;;;;10.90;6.22;;;;;;;8.50;100.00;102256.03;5073506;28;20389;-48
2023/05/04 00:26:10;;;;;;;14.68;6.30;;;;;;;8.46;100.00;102265.34;5073842;28;20029;-46
2023/05/04 00:28:35;;;;;;;9.63;5.97;;;;;;;8.44;100.00;102270.81;5072708;28;20038;-46
2023/05/04 00:31:01;;;;;;;7.70;6.22;;;;;;;8.39;100.00;102267.69;5071890;28;20069;-48
2023/05/04 00:33:26;;;;;;;11.60;5.85;;;;;;;8.39;100.00;102267.69;5073600;28;20046;-45
2023/05/04 00:35:53;;;;;;;13.15;6.30;;;;;;;8.39;100.00;102264.13;5059675;28;20182;-45
2023/05/04 00:38:18;;;;;;;13.65;6.03;;;;;;;8.36;100.00;102260.72;5051766;28;20520;-45
2023/05/04 00:40:44;;;;;;;8.57;6.53;;;;;;;8.33;100.00;102266.34;5052646;28;20107;-45
2023/05/04 00:43:11;;;;;;;12.82;6.95;;;;;;;8.32;100.00;102253.06;5051133;28;20029;-44
2023/05/04 00:45:36;;;;;;;14.57;6.65;;;;;;;8.27;100.00;102250.81;5051361;28;20104;-43
2023/05/04 00:48:02;;;;;;;9.60;7.10;;;;;;;8.26;100.00;102248.25;5069357;28;20103;-44
2023/05/04 00:50:28;;;;;;;11.90;6.75;;;;;;;8.27;100.00;102249.97;5070363;28;20027;-44
2023/05/04 00:52:55;;;;;;;13.95;6.38;;;;;;;8.24;100.00;102244.81;5055050;28;20033;-44
2023/05/04 00:55:21;;;;;;;14.63;7.30;;;;;;;8.20;100.00;102244.25;5056055;28;20207;-45
2023/05/04 00:57:48;;;;;;;9.32;6.75;;;;;;;8.18;100.00;102229.28;5051101;28;20045;-44
2023/05/04 01:00:14;;;;;;;19.30;7.35;;;;;;;8.14;100.00;102234.91;5052395;28;20029;-50
2023/05/04 01:02:40;;;;;;;10.02;7.13;;;;;;;8.10;100.00;102238.81;5051471;28;20044;-49
2023/05/04 01:05:06;;;;;;;9.13;6.72;;;;;;;8.07;100.00;102230.19;5052142;28;20414;-46
2023/05/04 01:07:54;;;;;;;9.15;7.47;;;;;;;8.04;100.00;102223.28;5051968;28;20450;-47
2023/05/04 01:10:27;;;;;;;9.32;7.10;;;;;;;8.07;100.00;102216.78;5051317;28;20495;-43
2023/05/04 01:13:03;;;;;;;9.75;7.03;;;;;;;8.03;100.00;102218.91;5069991;28;20027;-45
2023/05/04 01:15:30;;;;;;;11.93;7.53;;;;;;;8.05;100.00;102210.72;5069026;28;20052;-43
2023/05/04 01:17:56;;;;;;;11.85;7.60;;;;;;;8.00;100.00;102211.09;5068538;28;20051;-47
2023/05/04 01:20:21;;;;;;;12.05;7.80;;;;;;;8.02;100.00;102198.41;5071915;28;20033;-44
2023/05/04 01:22:46;;;;;;;12.00;7.85;;;;;;;7.98;100.00;102198.81;5071529;28;20020;-46
2023/05/04 01:25:13;;;;;;;11.18;6.93;;;;;;;7.96;100.00;102192.75;5070322;28;20120;-45
2023/05/04 01:27:49;;;;;;;9.52;7.35;;;;;;;7.93;100.00;102187.66;5070940;28;20114;-47
2023/05/04 01:30:29;;;;;;;9.95;7.47;;;;;;;7.93;100.00;102201.06;5033525;28;20063;-49
2023/05/04 01:32:56;;;;;;;15.38;8.23;;;;;;;7.88;100.00;102196.09;5051464;28;20497;-45
2023/05/04 01:35:22;;;;;;;15.17;8.80;;;;;;;7.87;100.00;102203.28;5051324;28;20055;-45
2023/05/04 01:37:47;;;;;;;10.52;7.38;;;;;;;7.88;100.00;102206.81;5033440;28;20420;-45
2023/05/04 01:40:13;;;;;;;15.13;8.20;;;;;;;7.88;100.00;102201.44;5051330;28;20082;-46
2023/05/04 01:42:38;;;;;;;15.45;8.57;;;;;;;7.86;100.00;102208.75;5049770;28;20111;-46
2023/05/04 01:45:06;;;;;;;13.50;8.23;;;;;;;7.83;100.00;102187.59;5050403;28;20054;-44
2023/05/04 01:47:33;;;;;;;13.15;8.05;;;;;;;7.81;100.00;102200.25;5050871;28;20496;-45
2023/05/04 01:49:59;;;;;;;13.27;8.35;;;;;;;7.79;100.00;102202.22;5050907;28;20116;-47
2023/05/04 01:52:24;;;;;;;12.75;7.85;;;;;;;7.77;100.00;102199.69;5051528;28;20043;-45
2023/05/04 01:54:50;;;;;;;13.57;8.65;;;;;;;7.73;100.00;102200.06;5049764;28;20049;-44
2023/05/04 01:57:15;;;;;;;11.80;8.90;;;;;;;7.69;100.00;102196.81;5050810;28;20051;-47
2023/05/04 01:59:40;;;;;;;15.00;8.45;;;;;;;7.70;100.00;102193.97;5049516;28;20053;-43
2023/05/04 02:02:06;;;;;;;14.18;8.52;;;;;;;7.68;100.00;102185.22;5053694;28;20139;-46
2023/05/04 02:04:31;;;;;;;18.92;8.95;;;;;;;7.66;100.00;102186.31;5069554;28;20042;-45
2023/05/04 02:06:56;;;;;;;18.38;9.48;;;;;;;7.65;100.00;102174.75;5071239;28;20055;-46
2023/05/04 02:09:22;;;;;;;17.02;9.40;;;;;;;7.62;100.00;102180.38;5069578;28;20070;-47
2023/05/04 02:11:47;;;;;;;12.52;8.55;;;;;;;7.60;100.00;102182.34;5069515;28;20445;-45
2023/05/04 02:14:14;;;;;;;15.57;9.43;;;;;;;7.60;100.00;102187.69;5069495;28;20036;-47
2023/05/04 02:16:40;;;;;;;14.98;9.13;;;;;;;7.60;100.00;102173.44;5068898;28;20435;-47
2023/05/04 02:19:05;;;;;;;12.98;8.55;;;;;;;7.54;100.00;102172.16;5067549;28;20058;-45
2023/05/04 02:21:31;;;;;;;24.80;11.13;;;;;;;7.54;100.00;102168.63;5050909;28;20069;-45
2023/05/04 02:23:56;;;;;;;13.48;9.77;;;;;;;7.51;100.00;102179.59;5051688;28;20526;-46
2023/05/04 02:26:23;;;;;;;18.25;9.63;;;;;;;7.54;100.00;102177.50;5052108;28;20040;-46
2023/05/04 02:28:48;;;;;;;11.40;8.90;;;;;;;7.51;100.00;102172.41;5068700;28;20386;-45
2023/05/04 02:31:13;;;;;;;13.52;9.13;;;;;;;7.49;100.00;102166.31;5061301;28;20029;-47
2023/05/04 02:33:39;;;;;;;19.05;9.23;;;;;;;7.48;100.00;102170.00;5048438;28;20060;-46
2023/05/04 02:36:04;;;;;;;22.77;9.38;;;;;;;7.46;100.00;102163.91;5057667;28;20032;-45
2023/05/04 02:38:30;;;;;;;17.88;9.20;;;;;;;7.44;100.00;102160.50;5054175;28;20021;-43
2023/05/04 02:40:57;;;;;;;17.20;9.27;;;;;;;7.43;100.00;102158.81;5064653;28;20024;-47
2023/05/04 02:43:22;;;;;;;17.88;9.68;;;;;;;7.40;100.00;102161.75;5048565;28;20021;-46
2023/05/04 02:45:48;;;;;;;18.27;9.93;;;;;;;7.33;100.00;102152.53;5063716;28;20564;-47
2023/05/04 02:48:13;;;;;;;18.40;9.60;;;;;;;7.31;100.00;102154.47;5050640;28;20132;-44
2023/05/04 02:50:38;;;;;;;18.67;9.60;;;;;;;7.30;100.00;102152.78;5063665;28;20028;-45
2023/05/04 02:53:04;;;;;;;16.17;9.05;;;;;;;7.31;100.00;102158.00;5064722;28;20481;-45
2023/05/04 02:55:29;;;;;;;16.60;9.82;;;;;;;7.32;100.00;102161.53;5055941;28;20044;-45
2023/05/04 02:57:55;;;;;;;16.45;9.30;;;;;;;7.28;100.00;102160.09;5060167;28;20049;-45
2023/05/04 03:00:21;;;;;;;14.73;9.18;;;;;;;7.23;100.00;102163.16;5053472;28;20109;-48
2023/05/04 03:02:46;;;;;;;16.08;9.93;;;;;;;7.22;100.00;102164.97;5067101;28;20024;-46
2023/05/04 03:05:11;;;;;;;14.52;8.93;;;;;;;7.20;100.00;102166.94;5064039;28;20122;-49
2023/05/04 03:07:38;;;;;;;18.88;10.07;;;;;;;7.22;100.00;102164.97;5049140;28;20043;-47
2023/05/04 03:10:03;;;;;;;19.15;9.50;;;;;;;7.24;100.00;102163.03;5049274;28;20036;-47
2023/05/04 03:12:29;;;;;;;13.05;9.38;;;;;;;7.21;100.00;102157.94;5050318;28;20029;-51
2023/05/04 03:14:54;;;;;;;17.50;9.63;;;;;;;7.20;100.00;102158.91;5057350;28;20052;-43
2023/05/04 03:17:20;;;;;;;14.95;9.68;;;;;;;7.19;100.00;102156.38;5064074;28;20051;-46
2023/05/04 03:19:46;;;;;;;15.98;9.02;;;;;;;7.18;100.00;102154.66;5066889;28;20029;-46
2023/05/04 03:22:11;;;;;;;17.58;10.05;;;;;;;7.16;100.00;102146.75;5050096;28;20398;-45
2023/05/04 03:24:36;;;;;;;18.80;10.13;;;;;;;7.15;100.00;102153.06;5053168;28;20040;-45
2023/05/04 03:27:02;;;;;;;14.82;9.60;;;;;;;7.06;100.00;102156.53;5067444;28;20047;-47
2023/05/04 03:29:28;;;;;;;18.70;9.63;;;;;;;7.04;100.00;102147.75;5058274;28;20376;-47
2023/05/04 03:31:53;;;;;;;18.55;10.43;;;;;;;7.03;100.00;102156.78;5066049;28;20108;-45
2023/05/04 03:34:20;;;;;;;24.27;10.43;;;;;;;7.06;100.00;102145.81;5046007;28;20051;-45
2023/05/04 03:36:47;;;;;;;14.20;8.90;;;;;;;7.03;100.00;102149.59;5062009;28;20032;-45
2023/05/04 03:39:15;;;;;;;16.85;9.90;;;;;;;7.02;100.00;102145.19;5032619;28;20116;-47
2023/05/04 03:41:40;;;;;;;21.02;9.90;;;;;;;7.02;100.00;102149.72;5049304;28;20524;-44
2023/05/04 03:44:06;;;;;;;17.17;9.75;;;;;;;7.03;100.00;102141.56;5046356;28;20037;-48
2023/05/04 03:46:32;;;;;;;20.83;10.13;;;;;;;6.99;100.00;102139.25;5051267;28;20552;-48
2023/05/04 03:48:57;;;;;;;14.07;9.55;;;;;;;6.96;100.00;102134.16;5065214;28;20032;-48
2023/05/04 03:51:23;;;;;;;20.83;10.70;;;;;;;6.95;100.00;102132.44;5051860;28;20047;-46
2023/05/04 03:53:48;;;;;;;17.05;10.55;;;;;;;6.89;100.00;102120.44;5055105;28;20028;-45
2023/05/04 03:56:14;;;;;;;17.40;10.23;;;;;;;6.86;100.00;102119.84;5051211;28;20044;-46
2023/05/04 03:58:39;;;;;;;15.27;9.57;;;;;;;6.87;100.00;102118.84;5065975;28;20459;-47
2023/05/04 04:01:05;;;;;;;17.48;10.73;;;;;;;6.86;100.00;102114.50;5064340;28;20033;-46
2023/05/04 04:03:31;;;;;;;14.60;9.57;;;;;;;6.87;100.00;102114.34;5055779;28;20033;-44
2023/05/04 04:05:57;;;;;;;20.13;10.65;;;;;;;6.88;100.00;102120.56;5063863;28;20051;-46
2023/05/04 04:08:23;;;;;;;14.57;10.02;;;;;;;6.84;100.00;102116.44;5067278;28;20494;-47
2023/05/04 04:10:48;;;;;;;16.38;10.32;;;;;;;6.87;100.00;102118.84;5064551;28;20029;-46
2023/05/04 04:13:14;;;;;;;13.15;9.73;;;;;;;6.79;100.00;102115.00;5064654;28;20043;-44
2023/05/04 04:15:39;;;;;;;21.58;10.35;;;;;;;6.81;100.00;102110.34;5065859;28;20146;-44
2023/05/04 04:18:05;;;;;;;16.48;9.80;;;;;;;6.81;100.00;102106.84;5066142;28;20044;-45
2023/05/04 04:20:31;;;;;;;26.83;10.48;;;;;;;6.84;100.00;102116.44;5057416;28;20037;-46
2023/05/04 04:22:56;;;;;;;18.73;10.00;;;;;;;6.83;100.00;102118.28;5063215;28;20454;-47
2023/05/04 04:25:23;;;;;;;18.50;9.77;;;;;;;6.76;100.00;102101.00;5065436;28;20038;-46
2023/05/04 04:27:48;;;;;;;22.05;9.82;;;;;;;6.80;100.00;102097.97;5052371;28;20056;-45
2023/05/04 04:30:14;;;;;;;20.42;10.15;;;;;;;6.81;100.00;102101.47;5065864;28;20060;-47
2023/05/04 04:32:39;;;;;;;20.67;10.10;;;;;;;6.88;100.00;102099.16;5070110;28;20130;-46
2023/05/04 04:35:05;;;;;;;16.42;9.75;;;;;;;6.88;100.00;102093.81;5041784;28;20518;-45
2023/05/04 04:37:34;;;;;;;17.98;9.73;;;;;;;6.88;100.00;102099.16;5060763;28;20483;-46
2023/05/04 04:40:00;;;;;;;;;;;;;;;6.87;100.00;102103.63;5058301;28;20032;-44
2023/05/04 04:42:25;;;;;;;14.45;9.43;;;;;;;6.87;100.00;102100.13;5050567;28;20235;-47
2023/05/04 04:44:51;;;;;;;15.40;9.35;;;;;;;6.88;100.00;102091.97;5041027;28;20043;-46
2023/05/04 04:47:17;;;;;;;19.23;9.18;;;;;;;6.86;100.00;102091.25;5053124;28;20051;-46
2023/05/04 04:49:43;;;;;;;16.35;9.77;;;;;;;6.88;100.00;102099.16;5049612;28;20093;-48
2023/05/04 04:52:08;;;;;;;16.02;9.63;;;;;;;6.94;100.00;102093.28;5061210;28;20428;-46
2023/05/04 04:54:34;;;;;;;14.75;9.18;;;;;;;6.93;100.00;102099.63;5059178;28;20049;-47
2023/05/04 04:56:59;;;;;;;16.17;9.50;;;;;;;6.94;100.00;102095.97;5051603;28;20029;-47
2023/05/04 04:59:25;;;;;;;19.88;9.48;;;;;;;6.96;100.00;102096.69;5049941;28;20035;-46
2023/05/04 05:01:50;;;;;;;18.42;9.90;;;;;;;6.99;100.00;102093.75;5032426;28;20462;-45
2023/05/04 05:04:18;;;;;;;17.55;9.55;;;;;;;7.06;100.00;102094.97;5033553;28;20037;-48
2023/05/04 05:06:44;;;;;;;20.73;10.00;;;;;;;7.08;100.00;102095.66;5049411;28;20112;-48
2023/05/04 05:09:10;;;;;;;14.88;8.93;;;;;;;7.09;100.00;102092.03;5051220;28;20037;-48
2023/05/04 05:11:35;;;;;;;17.85;10.15;;;;;;;7.09;100.00;102092.03;5058239;28;20439;-44
2023/05/04 05:14:01;;;;;;;19.48;10.80;;;;;;;7.24;100.00;102090.72;5069051;28;20043;-48
2023/05/04 05:16:26;;;;;;;13.85;9.35;;;;;;;7.28;100.00;102091.31;5071016;28;20112;-45
2023/05/04 05:18:51;;;;;;;16.83;9.70;;;;;;;7.28;100.00;102090.47;5071222;28;20025;-47
2023/05/04 05:21:17;;;;;;;18.42;9.25;;;;;;;7.32;100.00;102087.41;5068963;28;20025;-46
2023/05/04 05:23:42;;;;;;;15.88;9.13;;;;;;;7.28;100.00;102085.97;5064316;28;20061;-48
2023/05/04 05:26:08;;;;;;;16.45;9.38;;;;;;;7.35;100.00;102087.16;5051205;28;20033;-49
2023/05/04 05:28:33;;;;;;;17.42;9.93;;;;;;;7.30;100.00;102089.38;5051523;28;20017;-46
2023/05/04 05:30:58;;;;;;;18.85;9.77;;;;;;;7.40;100.00;102084.94;5052726;28;20029;-45
2023/05/04 05:33:24;;;;;;;20.02;9.43;;;;;;;7.52;100.00;102088.38;5055284;28;20037;-47
2023/05/04 05:35:49;;;;;;;19.58;9.27;;;;;;;7.57;100.00;102093.34;5058929;28;20379;-48
2023/05/04 05:38:16;;;;;;;18.05;9.98;;;;;;;7.64;100.00;102087.31;5067694;28;20039;-47
2023/05/04 05:40:41;;;;;;;20.08;9.82;;;;;;;7.59;100.00;102088.72;5062872;28;20059;-47
2023/05/04 05:43:07;;;;;;;18.25;10.27;;;;;;;7.60;100.00;102085.88;5049911;28;20160;-46
2023/05/04 05:45:32;;;;;;;16.85;9.95;;;;;;;7.65;100.00;102089.00;5051923;28;20039;-45
2023/05/04 05:47:57;;;;;;;24.83;10.23;;;;;;;7.69;100.00;102085.09;5069502;28;20053;-46
2023/05/04 05:50:23;;;;;;;15.65;9.88;;;;;;;7.76;100.00;102082.72;5061093;28;20029;-46
2023/05/04 05:52:49;;;;;;;19.63;9.95;;;;;;;7.82;100.00;102078.66;5068696;28;20155;-43
2023/05/04 05:55:14;;;;;;;23.70;10.20;;;;;;;7.94;100.00;102077.59;5062126;28;20074;-46
2023/05/04 05:57:39;;;;;;;19.48;9.77;;;;;;;8.14;100.00;102074.00;5048828;28;20090;-45
2023/05/04 06:00:08;;;;;;;22.02;11.30;;;;;;;8.59;100.00;102077.28;5050671;28;20032;-47
2023/05/04 06:02:33;;;;;;;17.17;10.07;;;;;;;9.01;100.00;102067.13;5048861;28;20032;-47
2023/05/04 06:04:58;;;;;;;21.88;9.35;;;;;;;9.14;100.00;102061.47;5050563;28;20650;-46
2023/05/04 06:07:24;;;;;;;22.75;9.75;;;;;;;9.04;100.00;102066.84;5048174;28;20036;-47
2023/05/04 06:09:49;;;;;;;15.50;9.10;;;;;;;9.16;100.00;102062.16;5053061;28;20017;-44
2023/05/04 06:12:16;;;;;;;18.92;9.20;;;;;;;9.65;100.00;102066.47;5065678;28;20027;-46
2023/05/04 06:14:41;;;;;;;16.40;9.55;;;;;;;10.28;100.00;102057.72;5056953;28;20041;-47
2023/05/04 06:17:07;;;;;;;20.13;9.60;;;;;;;10.76;100.00;102059.25;5049350;28;20530;-46
2023/05/04 06:19:36;;;;;;;14.15;8.70;;;;;;;10.99;100.00;102053.41;5066120;28;20024;-45
2023/05/04 06:22:02;;;;;;;17.35;9.27;;;;;;;11.01;100.00;102048.72;5069071;28;20068;-46
2023/05/04 06:24:28;;;;;;;15.05;9.32;;;;;;;10.98;100.00;102040.97;5051289;28;20132;-44
2023/05/04 06:26:55;;;;;;;18.63;9.95;;;;;;;11.20;100.00;102048.53;5055355;28;20032;-47
2023/05/04 06:29:20;;;;;;;17.08;8.70;;;;;;;11.70;100.00;102043.47;5058069;28;20406;-46
2023/05/04 06:31:47;;;;;;;21.52;9.18;;;;;;;12.25;100.00;102051.19;5058755;28;20021;-48
2023/05/04 06:34:15;;;;;;;13.75;8.20;;;;;;;12.64;100.00;102042.53;5053067;28;20685;-46
2023/05/04 06:36:41;;;;;;;13.38;8.60;;;;;;;12.70;100.00;102039.16;5061288;28;20064;-47
2023/05/04 06:39:06;;;;;;;14.32;8.65;;;;;;;12.55;100.00;102047.03;5050019;28;20051;-48
2023/05/04 06:41:31;;;;;;;21.77;8.98;;;;;;;12.38;100.00;102040.75;5051222;28;20479;-49
2023/05/04 06:43:59;;;;;;;15.50;8.73;;;;;;;12.45;100.00;102036.41;5057431;28;20027;-47
2023/05/04 06:46:25;;;;;;;15.20;8.90;;;;;;;12.64;100.00;102037.13;5064552;28;20029;-45
2023/05/04 06:48:53;;;;;;;18.80;8.50;;;;;;;12.41;100.00;102045.00;5049331;28;20025;-45
2023/05/04 06:51:19;;;;;;;14.23;8.30;;;;;;;12.08;100.00;102032.25;5055868;28;20025;-47
2023/05/04 06:53:45;;;;;;;14.65;8.23;;;;;;;11.96;100.00;102021.91;5048610;28;20074;-45
2023/05/04 06:56:11;;;;;;;12.98;9.15;;;;;;;11.79;100.00;102024.47;5049240;28;20052;-46
2023/05/04 06:58:36;;;;;;;14.40;8.65;;;;;;;11.71;100.00;102026.28;5032671;28;20047;-44
2023/05/04 07:01:02;;;;;;;16.40;8.60;;;;;;;11.92;100.00;102015.13;5051908;28;20036;-47
2023/05/04 07:03:27;;;;;;;16.02;9.05;;;;;;;11.94;100.00;102011.25;5049958;28;20089;-46
2023/05/04 07:05:53;;;;;;;19.30;8.95;;;;;;;11.98;100.00;102015.34;5049573;28;20025;-47
2023/05/04 07:08:18;;;;;;;17.90;8.65;;;;;;;12.23;100.00;102013.56;5069537;28;20093;-49
2023/05/04 07:10:44;;;;;;;13.40;8.73;;;;;;;12.29;100.00;101995.84;5068642;28;20356;-45
2023/05/04 07:13:10;;;;;;;17.30;8.38;;;;;;;12.79;100.00;102010.28;5051297;28;20360;-46
2023/05/04 07:15:35;;;;;;;19.38;8.57;;;;;;;13.05;100.00;102004.72;5049170;28;20039;-44
2023/05/04 07:18:01;;;;;;;19.70;8.90;;;;;;;13.33;99.87;102006.06;5065993;28;20029;-49
2023/05/04 07:20:27;;;;;;;19.10;8.50;;;;;;;13.31;98.76;102004.53;5070461;28;20052;-48
2023/05/04 07:22:56;;;;;;;20.67;8.25;;;;;;;13.22;98.16;101990.16;5052786;28;20033;-46
2023/05/04 07:25:23;;;;;;;13.63;8.75;;;;;;;13.25;100.00;101999.81;5050245;28;20025;-46
2023/05/04 07:27:49;;;;;;;12.90;8.18;;;;;;;13.32;99.05;102001.69;5054456;28;20017;-47
2023/05/04 07:30:15;;;;;;;14.15;8.40;;;;;;;13.47;98.85;101995.56;5046246;28;20029;-50
2023/05/04 07:32:40;;;;;;;20.45;8.93;;;;;;;13.72;97.36;101994.47;5048445;28;20441;-47
2023/05/04 07:35:06;;;;;;;19.13;8.43;;;;;;;13.60;96.90;101985.03;5048334;28;20064;-45
2023/05/04 07:37:32;;;;;;;17.40;8.77;;;;;;;13.38;97.27;101982.06;5060182;28;20382;-46
2023/05/04 07:39:59;;;;;;;16.52;7.88;;;;;;;13.24;98.57;101980.00;5059531;28;20480;-45
2023/05/04 07:42:26;;;;;;;13.73;7.70;;;;;;;13.54;97.09;101983.03;5035566;28;20048;-47
2023/05/04 07:44:52;;;;;;;12.68;8.20;;;;;;;13.48;97.90;101970.19;5062126;28;20534;-46
2023/05/04 07:47:18;;;;;;;13.35;7.80;;;;;;;13.61;97.79;101967.78;5046797;28;20111;-48
2023/05/04 07:49:43;;;;;;;12.68;8.13;;;;;;;13.73;97.57;101958.28;5046238;28;20086;-46
2023/05/04 07:52:08;;;;;;;15.48;8.60;;;;;;;13.70;98.12;101953.22;5048580;28;20048;-47
2023/05/04 07:54:35;;;;;;;15.07;8.50;;;;;;;13.80;98.56;101959.25;5056667;28;20474;-49
2023/05/04 07:57:02;;;;;;;14.93;8.73;;;;;;;14.05;97.52;101956.44;5052480;28;20508;-46
2023/05/04 07:59:28;;;;;;;17.38;8.60;;;;;;;14.25;96.74;101952.25;5063046;28;20112;-45
2023/05/04 08:01:56;;;;;;;16.75;8.23;;;;;;;14.77;94.31;101944.44;5051930;28;20115;-51
2023/05/04 08:04:22;;;;;;;12.80;8.52;;;;;;;14.99;93.46;101949.00;5052772;28;20643;-48
2023/05/04 08:06:48;;;;;;;19.63;8.35;;;;;;;15.28;92.15;101950.06;5052827;28;20021;-51
2023/05/04 08:09:15;;;;;;;13.65;8.13;;;;;;;15.58;90.57;101951.72;5053716;28;20025;-46
2023/05/04 08:11:41;;;;;;;11.02;7.30;;;;;;;15.95;87.46;101952.66;5051995;28;20036;-48
2023/05/04 08:14:07;;;;;;;15.15;8.07;;;;;;;16.60;83.92;101952.72;5051951;28;20029;-48
2023/05/04 08:16:32;;;;;;;12.80;8.07;;;;;;;17.28;80.96;101961.25;5053211;28;20482;-46
2023/05/04 08:19:00;;;;;;;10.40;7.20;;;;;;;18.01;77.17;101950.78;5051801;28;20025;-50
2023/05/04 08:21:25;;;;;;;14.95;7.32;;;;;;;18.60;73.05;101954.66;5053443;28;20025;-49
2023/05/04 08:23:51;;;;;;;14.77;7.30;;;;;;;18.72;71.35;101954.88;5051833;28;20368;-45
2023/05/04 08:26:18;;;;;;;10.80;7.30;;;;;;;18.65;71.00;101954.88;5053320;28;20041;-45
2023/05/04 08:28:44;;;;;;;11.25;7.28;;;;;;;18.75;70.24;101949.06;5052937;28;20478;-46
2023/05/04 08:31:11;;;;;;;11.05;7.47;;;;;;;18.80;70.90;101941.06;5035694;28;20122;-45
2023/05/04 08:33:37;;;;;;;18.13;7.47;;;;;;;18.94;69.44;101933.72;5052054;28;20033;-44
2023/05/04 08:36:03;;;;;;;9.73;6.90;;;;;;;19.27;69.75;101934.53;5052928;28;20025;-44
2023/05/04 08:38:29;;;;;;;12.63;7.10;;;;;;;19.92;65.45;101942.72;5051783;28;20429;-49
2023/05/04 08:40:54;;;;;;;12.27;7.50;;;;;;;19.70;64.34;101924.97;5052840;28;20025;-46
2023/05/04 08:43:19;;;;;;;13.40;7.45;;;;;;;19.77;65.68;101923.03;5034273;28;20025;-46
2023/05/04 08:45:45;;;;;;;10.57;7.20;;;;;;;19.97;65.58;101922.94;5051087;28;20037;-45
2023/05/04 08:48:10;;;;;;;17.42;7.25;;;;;;;20.48;61.49;101912.97;5052283;28;20074;-46
2023/05/04 08:50:37;;;;;;;12.48;7.10;;;;;;;21.15;59.88;101908.59;5050456;28;20074;-48
2023/05/04 08:53:05;;;;;;;8.80;6.20;;;;;;;21.37;56.61;101910.91;5050545;28;20036;-48
2023/05/04 08:55:33;;;;;;;7.30;6.30;;;;;;;20.89;59.12;101912.44;5051680;28;20395;-46
2023/05/04 08:58:01;;;;;;;11.90;7.13;;;;;;;20.89;58.15;101898.75;5049948;28;20475;-46
2023/05/04 09:00:27;;;;;;;9.55;6.13;;;;;;;20.81;59.16;101902.63;5052510;28;20376;-49
2023/05/04 09:02:52;;;;;;;13.45;7.22;;;;;;;21.08;57.37;101905.09;5034454;28;20025;-52
2023/05/04 09:05:18;;;;;;;11.80;6.68;;;;;;;21.42;57.56;101897.38;5051438;28;20083;-46
2023/05/04 09:07:44;;;;;;;12.07;6.75;;;;;;;21.20;57.92;101900.56;5051599;28;20379;-46
2023/05/04 09:10:09;;;;;;;11.55;6.30;;;;;;;21.70;59.00;101897.69;5052447;28;20013;-47
2023/05/04 09:12:36;;;;;;;11.75;7.05;;;;;;;22.19;55.34;101894.06;5052528;28;20031;-44
2023/05/04 09:15:12;;;;;;;;;;;;;;;22.61;52.70;101892.13;5053035;28;20021;-46
2023/05/04 09:17:37;;;;;;;11.75;6.90;;;;;;;22.31;53.35;101897.69;5050485;28;20002;-48
2023/05/04 09:20:03;;;;;;;12.18;6.63;;;;;;;22.40;53.70;101890.78;5050798;28;20432;-47
2023/05/04 09:22:29;;;;;;;12.32;6.63;;;;;;;23.04;52.73;101887.41;5050132;28;20543;-46
2023/05/04 09:25:12;;;;;;;9.68;6.15;;;;;;;23.30;50.06;101892.41;5033371;28;20428;-47
2023/05/04 09:27:40;;;;;;;15.55;6.88;;;;;;;22.79;49.24;101875.56;5033345;28;20020;-49
2023/05/04 09:30:06;;;;;;;10.63;6.00;;;;;;;22.74;50.38;101874.59;5051115;28;20058;-46
2023/05/04 09:32:44;;;;;;;10.15;6.18;;;;;;;22.52;50.15;101872.44;5033418;28;20045;-47
2023/05/04 09:35:09;;;;;;;13.90;5.80;;;;;;;22.59;49.85;101869.56;5050947;28;20033;-48
2023/05/04 09:37:45;;;;;;;6.95;5.00;;;;;;;22.72;49.28;101863.88;5050920;28;20028;-46
2023/05/04 09:40:12;;;;;;;13.30;5.85;;;;;;;22.76;49.27;101858.75;5050556;28;20340;-48
2023/05/04 09:42:37;;;;;;;9.55;5.90;;;;;;;22.50;53.28;101855.38;5049997;28;20059;-47
2023/05/04 09:45:05;;;;;;;11.35;7.03;;;;;;;23.44;51.98;101860.00;5049400;28;20056;-47
2023/05/04 09:47:33;;;;;;;11.18;6.60;;;;;;;23.54;49.02;101859.34;5050958;28;20029;-44
2023/05/04 09:49:59;;;;;;;9.35;5.68;;;;;;;23.05;48.59;101854.22;5033132;28;20095;-48
2023/05/04 09:52:28;;;;;;;12.15;5.78;;;;;;;23.13;48.15;101850.28;5050654;28;20029;-46
2023/05/04 09:54:55;;;;;;;10.80;5.88;;;;;;;22.73;48.25;101851.00;5050667;28;20036;-45
2023/05/04 09:57:22;;;;;;;8.73;5.75;;;;;;;22.66;48.96;101836.56;5050113;28;20028;-46
2023/05/04 09:59:48;;;;;;;9.15;5.65;;;;;;;22.72;50.39;101835.59;5049297;28;20060;-47
2023/05/04 10:02:13;;;;;;;12.32;5.97;;;;;;;22.73;49.28;101831.78;5032746;28;20478;-46
2023/05/04 10:04:39;;;;;;;10.90;5.28;;;;;;;23.07;47.77;101834.78;5050536;28;20025;-46
2023/05/04 10:07:05;;;;;;;8.25;5.57;;;;;;;23.39;47.16;101824.19;5049998;28;20036;-50
2023/05/04 10:09:32;;;;;;;12.18;6.10;;;;;;;24.03;46.28;101815.78;5051713;28;20035;-45
2023/05/04 10:12:04;;;;;;;10.57;6.00;;;;;;;23.49;45.45;101812.56;5050188;28;20021;-47
2023/05/04 10:14:33;;;;;;;13.95;5.70;;;;;;;22.88;47.66;101804.69;5049374;28;20024;-45
2023/05/04 10:17:20;;;;;;;8.90;5.90;;;;;;;23.07;47.93;101807.31;5050048;28;20422;-48
2023/05/04 10:19:51;;;;;;;;;;;;;;;23.13;47.15;101795.34;5050604;28;20409;-44
2023/05/04 10:22:22;;;;;;;10.65;5.53;;;;;;;22.97;46.54;101794.19;5051067;28;19951;-45
2023/05/04 10:25:18;;;;;;;11.10;5.70;;;;;;;22.66;48.05;101788.00;5033610;28;20068;-45
2023/05/04 10:28:02;;;;;;;11.00;5.53;;;;;;;22.68;47.63;101790.50;5051684;28;20029;-45
2023/05/04 10:30:29;;;;;;;10.05;5.60;;;;;;;23.58;47.41;101789.09;5049964;28;20029;-47
2023/05/04 10:32:56;;;;;;;9.32;6.15;;;;;;;23.96;47.00;101780.22;5049667;28;20031;-45
2023/05/04 10:35:21;;;;;;;10.27;5.45;;;;;;;24.31;44.05;101788.19;5049765;28;20086;-49
2023/05/04 10:37:54;;;;;;;10.52;5.63;;;;;;;23.87;45.72;101777.00;5050921;28;20033;-47
2023/05/04 10:40:32;;;;;;;12.77;5.57;;;;;;;23.59;45.09;101774.28;5050795;28;20033;-50
2023/05/04 10:42:57;;;;;;;9.32;5.72;;;;;;;24.07;44.38;101764.72;5050903;28;20107;-50
2023/05/04 10:45:38;;;;;;;13.13;5.75;;;;;;;24.12;44.39;101773.06;5050900;28;20028;-44
2023/05/04 10:48:06;;;;;;;8.70;5.25;;;;;;;24.09;43.99;101760.63;5049166;28;20051;-46
2023/05/04 10:50:48;;;;;;;9.63;6.10;;;;;;;23.71;45.08;101755.81;5048979;28;20067;-48
2023/05/04 10:53:15;;;;;;;7.95;5.40;;;;;;;24.05;46.51;101761.38;5032668;28;20501;-46
2023/05/04 10:55:45;;;;;;;11.57;5.20;;;;;;;24.08;44.55;101755.38;5032911;28;20557;-46
2023/05/04 10:58:13;;;;;;;11.95;5.38;;;;;;;24.16;45.56;101752.19;5049424;28;20514;-47
2023/05/04 11:00:47;;;;;;;13.68;6.20;;;;;;;23.88;44.79;101747.59;5049567;28;20025;-46
2023/05/04 11:03:14;;;;;;;11.60;5.18;;;;;;;24.00;44.66;101736.53;5049348;28;20064;-49
2023/05/04 11:05:43;;;;;;;11.35;5.13;;;;;;;24.03;46.06;101725.03;5050368;28;20068;-48
2023/05/04 11:08:26;;;;;;;12.93;6.28;;;;;;;23.78;45.15;101744.72;5049471;28;20033;-45
2023/05/04 11:11:08;;;;;;;31.35;6.80;;;;;;;24.18;44.24;101733.53;5049866;28;20029;-44
2023/05/04 11:13:34;;;;;;;9.98;5.68;;;;;;;24.84;43.46;101730.09;5050478;28;20161;-46
2023/05/04 11:16:00;;;;;;;11.43;5.70;;;;;;;24.94;43.89;101713.69;5050561;28;20037;-43